Time,TemperatureF,DewpointF,PressureIn,WindDirection,WindDirectionDegrees,WindSpeedMPH,WindSpeedGustMPH,Humidity,HourlyPrecipIn,Conditions,Clouds,dailyrainin,SoftwareType,DateUTC
2013-06-25 00:01:00,73.0,68.6,29.98,WSW,247,1.7,-999.0,86,-99.99,,,0.00,Acu-Link.com,2013-06-25 04:01:00,
2013-06-25 00:16:00,72.7,68.3,29.98,SW,225,2.7,-999.0,86,-99.99,,,0.00,Acu-Link.com,2013-06-25 04:16:00,
2013-06-25 00:31:00,72.5,68.4,29.98,SSW,202,2.7,-999.0,87,-99.99,,,0.00,Acu-Link.com,2013-06-25 04:31:00,
2013-06-25 00:47:00,72.1,68.3,29.98,WSW,247,2.7,-999.0,88,-99.99,,,0.00,Acu-Link.com,2013-06-25 04:47:00,
2013-06-25 01:02:00,72.0,68.2,29.98,South,180,3.2,-999.0,88,-99.99,,,0.00,Acu-Link.com,2013-06-25 05:02:00,
2013-06-25 01:17:00,71.8,68.4,29.99,SSW,202,4.2,-999.0,89,-99.99,,,0.00,Acu-Link.com,2013-06-25 05:17:00,
2013-06-25 01:32:00,71.4,68.0,29.97,WSW,247,1.7,-999.0,89,-99.99,,,0.00,Acu-Link.com,2013-06-25 05:32:00,
2013-06-25 01:48:00,71.4,68.0,29.98,WSW,247,3.2,-999.0,89,-99.99,,,0.00,Acu-Link.com,2013-06-25 05:48:00,
2013-06-25 02:03:00,71.1,67.7,29.97,WSW,247,2.7,-999.0,89,-99.99,,,0.00,Acu-Link.com,2013-06-25 06:03:00,
2013-06-25 02:18:00,70.9,67.5,29.97,SSW,202,2.7,-999.0,89,-99.99,,,0.00,Acu-Link.com,2013-06-25 06:18:00,
2013-06-25 02:34:00,70.7,67.3,29.96,West,270,3.2,-999.0,89,-99.99,,,0.00,Acu-Link.com,2013-06-25 06:34:00,
2013-06-25 02:49:00,70.3,66.6,29.95,SW,225,2.2,-999.0,88,-99.99,,,0.00,Acu-Link.com,2013-06-25 06:49:00,
2013-06-25 03:04:00,70.2,66.5,29.95,SW,225,3.7,-999.0,88,-99.99,,,0.00,Acu-Link.com,2013-06-25 07:04:00,
2013-06-25 03:19:00,70.0,66.3,29.94,West,270,2.2,-999.0,88,-99.99,,,0.00,Acu-Link.com,2013-06-25 07:19:00,
2013-06-25 03:35:00,69.6,66.2,29.94,SSW,202,1.7,-999.0,89,-99.99,,,0.00,Acu-Link.com,2013-06-25 07:35:00,
2013-06-25 03:50:00,69.3,66.2,29.94,SW,225,3.2,-999.0,90,-99.99,,,0.00,Acu-Link.com,2013-06-25 07:50:00,
2013-06-25 04:05:00,69.3,66.2,29.93,ESE,112,0.0,-999.0,90,-99.99,,,0.00,Acu-Link.com,2013-06-25 08:05:00,
2013-06-25 04:21:00,69.3,66.2,29.93,West,270,1.7,-999.0,90,-99.99,,,0.00,Acu-Link.com,2013-06-25 08:21:00,
2013-06-25 04:36:00,69.3,66.6,29.93,SW,225,2.2,-999.0,91,-99.99,,,0.00,Acu-Link.com,2013-06-25 08:36:00,
2013-06-25 04:51:00,68.9,66.5,29.93,WSW,247,1.7,-999.0,92,-99.99,,,0.00,Acu-Link.com,2013-06-25 08:51:00,
2013-06-25 05:06:00,68.7,66.6,29.93,SW,225,2.2,-999.0,93,-99.99,,,0.00,Acu-Link.com,2013-06-25 09:06:00,
2013-06-25 05:21:00,68.4,66.3,29.92,SSE,157,0.0,-999.0,93,-99.99,,,0.00,Acu-Link.com,2013-06-25 09:21:00,
2013-06-25 05:36:00,68.2,66.4,29.92,WSW,247,2.7,-999.0,94,-99.99,,,0.00,Acu-Link.com,2013-06-25 09:36:00,
2013-06-25 05:51:00,68.2,66.7,29.93,SW,225,3.7,-999.0,95,-99.99,,,0.00,Acu-Link.com,2013-06-25 09:51:00,
2013-06-25 06:06:00,68.4,66.9,29.93,WSW,247,3.2,-999.0,95,-99.99,,,0.00,Acu-Link.com,2013-06-25 10:06:00,
2013-06-25 06:22:00,68.5,67.0,29.94,West,270,3.2,-999.0,95,-99.99,,,0.00,Acu-Link.com,2013-06-25 10:22:00,
2013-06-25 06:37:00,68.7,66.9,29.94,WSW,247,2.7,-999.0,94,-99.99,,,0.00,Acu-Link.com,2013-06-25 10:37:00,
2013-06-25 06:52:00,70.2,67.8,29.95,SSW,202,2.2,-999.0,92,-99.99,,,0.00,Acu-Link.com,2013-06-25 10:52:00,
2013-06-25 07:07:00,72.0,68.2,29.95,SW,225,2.7,-999.0,88,-99.99,,,0.00,Acu-Link.com,2013-06-25 11:07:00,
2013-06-25 07:22:00,72.5,68.1,29.95,SSW,202,4.7,-999.0,86,-99.99,,,0.00,Acu-Link.com,2013-06-25 11:22:00,
2013-06-25 07:38:00,73.8,68.7,29.95,SW,225,2.7,-999.0,84,-99.99,,,0.00,Acu-Link.com,2013-06-25 11:38:00,
2013-06-25 07:53:00,75.4,69.2,29.95,South,180,2.2,-999.0,81,-99.99,,,0.00,Acu-Link.com,2013-06-25 11:53:00,
2013-06-25 08:08:00,75.9,69.3,29.96,WSW,247,5.3,-999.0,80,-99.99,,,0.00,Acu-Link.com,2013-06-25 12:08:00,
2013-06-25 08:23:00,77.4,69.2,29.96,West,270,6.3,-999.0,76,-99.99,,,0.00,Acu-Link.com,2013-06-25 12:23:00,
2013-06-25 08:39:00,77.7,69.1,29.96,WSW,247,6.3,-999.0,75,-99.99,,,0.00,Acu-Link.com,2013-06-25 12:39:00,
2013-06-25 08:54:00,78.1,67.9,29.96,West,270,8.9,-999.0,71,-99.99,,,0.00,Acu-Link.com,2013-06-25 12:54:00,
2013-06-25 09:09:00,79.9,68.8,29.97,West,270,5.8,-999.0,69,-99.99,,,0.00,Acu-Link.com,2013-06-25 13:09:00,
2013-06-25 09:24:00,80.4,68.8,29.97,SW,225,2.7,-999.0,68,-99.99,,,0.00,Acu-Link.com,2013-06-25 13:24:00,
2013-06-25 09:40:00,80.1,68.1,29.97,West,270,10.9,-999.0,67,-99.99,,,0.00,Acu-Link.com,2013-06-25 13:40:00,
2013-06-25 09:55:00,79.7,68.2,29.98,SW,225,10.4,-999.0,68,-99.99,,,0.00,Acu-Link.com,2013-06-25 13:55:00,
2013-06-25 10:10:00,78.1,67.5,29.98,South,180,8.3,-999.0,70,-99.99,,,0.00,Acu-Link.com,2013-06-25 14:10:00,
2013-06-25 10:26:00,80.1,68.1,29.97,West,270,9.4,-999.0,67,-99.99,,,0.00,Acu-Link.com,2013-06-25 14:26:00,
2013-06-25 10:41:00,80.4,68.0,29.97,West,270,8.3,-999.0,66,-99.99,,,0.00,Acu-Link.com,2013-06-25 14:41:00,
2013-06-25 10:56:00,81.1,67.3,29.96,West,270,4.7,-999.0,63,-99.99,,,0.00,Acu-Link.com,2013-06-25 14:56:00,
2013-06-25 11:11:00,81.7,67.9,29.96,NNW,337,8.9,-999.0,63,-99.99,,,0.00,Acu-Link.com,2013-06-25 15:11:00,
2013-06-25 11:27:00,82.8,67.5,29.96,SSW,202,7.3,-999.0,60,-99.99,,,0.00,Acu-Link.com,2013-06-25 15:27:00,
2013-06-25 11:42:00,83.1,67.8,29.96,West,270,6.3,-999.0,60,-99.99,,,0.00,Acu-Link.com,2013-06-25 15:42:00,
2013-06-25 11:57:00,84.2,69.3,29.95,SW,225,10.4,-999.0,61,-99.99,,,0.00,Acu-Link.com,2013-06-25 15:57:00,
2013-06-25 12:12:00,84.7,68.8,29.95,WSW,247,10.4,-999.0,59,-99.99,,,0.00,Acu-Link.com,2013-06-25 16:12:00,
2013-06-25 12:27:00,83.8,67.9,29.95,WNW,292,6.8,-999.0,59,-99.99,,,0.00,Acu-Link.com,2013-06-25 16:27:00,
2013-06-25 12:42:00,83.5,68.1,29.95,SSW,202,5.8,-999.0,60,-99.99,,,0.00,Acu-Link.com,2013-06-25 16:42:00,
2013-06-25 12:57:00,85.5,68.0,29.94,West,270,9.9,-999.0,56,-99.99,,,0.00,Acu-Link.com,2013-06-25 16:57:00,
2013-06-25 13:12:00,85.5,68.0,29.93,West,270,6.8,-999.0,56,-99.99,,,0.00,Acu-Link.com,2013-06-25 17:12:00,
2013-06-25 13:27:00,86.9,68.2,29.93,West,270,7.8,-999.0,54,-99.99,,,0.00,Acu-Link.com,2013-06-25 17:27:00,
2013-06-25 13:43:00,85.6,68.1,29.93,West,270,4.7,-999.0,56,-99.99,,,0.00,Acu-Link.com,2013-06-25 17:43:00,
2013-06-25 13:58:00,85.1,69.1,29.93,West,270,4.7,-999.0,59,-99.99,,,0.00,Acu-Link.com,2013-06-25 17:58:00,
2013-06-25 14:13:00,86.2,69.7,29.91,SW,225,3.7,-999.0,58,-99.99,,,0.00,Acu-Link.com,2013-06-25 18:13:00,
2013-06-25 14:29:00,87.8,69.0,29.91,West,270,5.8,-999.0,54,-99.99,,,0.00,Acu-Link.com,2013-06-25 18:29:00,
2013-06-25 14:44:00,87.8,69.0,29.91,WSW,247,4.2,-999.0,54,-99.99,,,0.00,Acu-Link.com,2013-06-25 18:44:00,
2013-06-25 14:59:00,88.2,69.4,29.91,WSW,247,5.3,-999.0,54,-99.99,,,0.00,Acu-Link.com,2013-06-25 18:59:00,
2013-06-25 15:14:00,87.4,70.3,29.90,West,270,3.2,-999.0,57,-99.99,,,0.00,Acu-Link.com,2013-06-25 19:14:00,
2013-06-25 15:30:00,88.7,71.0,29.90,SW,225,5.3,-999.0,56,-99.99,,,0.00,Acu-Link.com,2013-06-25 19:30:00,
2013-06-25 15:46:00,88.0,69.8,29.89,SW,225,7.8,-999.0,55,-99.99,,,0.00,Acu-Link.com,2013-06-25 19:46:00,
2013-06-25 16:01:00,87.4,69.2,29.88,SW,225,5.3,-999.0,55,-99.99,,,0.00,Acu-Link.com,2013-06-25 20:01:00,
2013-06-25 16:16:00,88.5,69.1,29.87,WSW,247,7.3,-999.0,53,-99.99,,,0.00,Acu-Link.com,2013-06-25 20:16:00,
2013-06-25 16:31:00,89.1,69.7,29.86,South,180,7.8,-999.0,53,-99.99,,,0.00,Acu-Link.com,2013-06-25 20:31:00,
2013-06-25 16:46:00,89.1,69.1,29.86,WSW,247,9.4,-999.0,52,-99.99,,,0.00,Acu-Link.com,2013-06-25 20:46:00,
2013-06-25 17:16:00,88.2,69.4,29.84,WSW,247,10.4,-999.0,54,-99.99,,,0.00,Acu-Link.com,2013-06-25 21:16:00,
2013-06-25 17:31:00,88.3,69.0,29.83,ESE,112,4.7,-999.0,53,-99.99,,,0.00,Acu-Link.com,2013-06-25 21:31:00,
2013-06-25 17:46:00,89.8,69.8,29.82,WSW,247,5.8,-999.0,52,-99.99,,,0.00,Acu-Link.com,2013-06-25 21:46:00,
2013-06-25 18:01:00,89.8,68.6,29.81,SSW,202,10.9,-999.0,50,-99.99,,,0.00,Acu-Link.com,2013-06-25 22:01:00,
2013-06-25 18:16:00,88.7,69.3,29.82,SW,225,11.4,-999.0,53,-99.99,,,0.00,Acu-Link.com,2013-06-25 22:16:00,
2013-06-25 18:32:00,87.8,68.5,29.84,WSW,247,8.3,-999.0,53,-99.99,,,0.00,Acu-Link.com,2013-06-25 22:32:00,
2013-06-25 18:47:00,88.0,69.2,29.85,SW,225,5.8,-999.0,54,-99.99,,,0.00,Acu-Link.com,2013-06-25 22:47:00,
2013-06-25 19:02:00,86.0,69.5,29.85,SW,225,3.7,-999.0,58,-99.99,,,0.00,Acu-Link.com,2013-06-25 23:02:00,
2013-06-25 19:17:00,84.0,68.6,29.87,West,270,5.3,-999.0,60,-99.99,,,0.00,Acu-Link.com,2013-06-25 23:17:00,
2013-06-25 19:32:00,82.8,68.4,29.89,WSW,247,6.3,-999.0,62,-99.99,,,0.00,Acu-Link.com,2013-06-25 23:32:00,
2013-06-25 19:48:00,74.3,60.9,29.93,ENE,67,9.9,-999.0,63,-99.99,,,0.00,Acu-Link.com,2013-06-25 23:48:00,
2013-06-25 20:03:00,67.6,64.2,29.95,South,180,1.1,-999.0,89,-99.99,,,0.01,Acu-Link.com,2013-06-26 00:03:00,
2013-06-25 20:18:00,65.5,64.3,29.90,East,90,5.8,-999.0,96,-99.99,,,0.14,Acu-Link.com,2013-06-26 00:18:00,
2013-06-25 20:33:00,65.8,64.6,29.88,ESE,112,3.7,-999.0,96,-99.99,,,0.18,Acu-Link.com,2013-06-26 00:33:00,
2013-06-25 20:49:00,65.8,64.6,29.87,SE,135,5.3,-999.0,96,-99.99,,,0.19,Acu-Link.com,2013-06-26 00:49:00,
2013-06-25 21:04:00,66.2,64.7,29.87,ENE,67,2.2,-999.0,95,-99.99,,,0.19,Acu-Link.com,2013-06-26 01:04:00,
2013-06-25 21:19:00,65.8,64.3,29.83,ESE,112,2.7,-999.0,95,-99.99,,,0.19,Acu-Link.com,2013-06-26 01:19:00,
2013-06-25 21:35:00,65.7,64.2,29.83,WSW,247,2.7,-999.0,95,-99.99,,,0.20,Acu-Link.com,2013-06-26 01:35:00,
2013-06-25 21:50:00,65.7,64.2,29.83,WSW,247,2.7,-999.0,95,-99.99,,,0.20,Acu-Link.com,2013-06-26 01:50:00,
2013-06-25 22:05:00,65.3,64.1,29.85,West,270,2.7,-999.0,96,-99.99,,,0.20,Acu-Link.com,2013-06-26 02:05:00,
2013-06-25 22:20:00,65.8,64.6,29.87,West,270,3.7,-999.0,96,-99.99,,,0.20,Acu-Link.com,2013-06-26 02:20:00,
2013-06-25 22:36:00,65.7,64.5,29.86,SE,135,2.2,-999.0,96,-99.99,,,0.20,Acu-Link.com,2013-06-26 02:36:00,
2013-06-25 22:51:00,65.1,64.5,29.85,SW,225,3.2,-999.0,98,-99.99,,,0.20,Acu-Link.com,2013-06-26 02:51:00,
2013-06-25 23:06:00,65.1,64.8,29.85,SSW,202,3.2,-999.0,99,-99.99,,,0.20,Acu-Link.com,2013-06-26 03:06:00,
2013-06-25 23:22:00,65.3,64.7,29.84,SW,225,2.2,-999.0,98,-99.99,,,0.20,Acu-Link.com,2013-06-26 03:22:00,
2013-06-25 23:37:00,65.5,64.9,29.85,SSW,202,3.2,-999.0,98,-99.99,,,0.20,Acu-Link.com,2013-06-26 03:37:00,
2013-06-25 23:52:00,65.7,64.8,29.84,SSW,202,1.7,-999.0,97,-99.99,,,0.20,Acu-Link.com,2013-06-26 03:52:00,